createdAt,value
2022-10-01T00:00:50.425Z,12.86
2022-10-01T00:03:53.252Z,12.86
2022-10-01T00:06:55.308Z,12.92
2022-10-01T00:09:57.493Z,13.04
2022-10-01T00:12:59.430Z,13.02
2022-10-01T00:16:04.554Z,13.11
2022-10-01T00:19:06.477Z,13.01
2022-10-01T00:22:08.658Z,12.98
2022-10-01T00:25:10.550Z,13.04
2022-10-01T00:28:12.761Z,13.14
2022-10-01T00:31:15.880Z,13.04
2022-10-01T00:34:18.188Z,12.95
2022-10-01T00:37:20.745Z,12.83
2022-10-01T00:40:23.803Z,12.85
2022-10-01T00:43:27.046Z,12.89
2022-10-01T00:46:36.388Z,13.01
2022-10-01T00:49:38.829Z,13.06
2022-10-01T00:52:41.966Z,13.09
2022-10-01T00:55:46.032Z,13.02
2022-10-01T00:58:48.773Z,13.01
2022-10-01T01:01:50.920Z,13.06
2022-10-01T01:04:53.173Z,13.05
2022-10-01T01:07:55.041Z,13.12
2022-10-01T01:10:57.173Z,13.14
2022-10-01T01:14:17.938Z,13.08
2022-10-01T01:17:25.724Z,13.14
2022-10-01T01:20:31.081Z,13.09
2022-10-01T01:23:54.643Z,13.18
2022-10-01T01:27:16.192Z,13.02
2022-10-01T01:30:18.928Z,12.94
2022-10-01T01:33:22.795Z,12.96
2022-10-01T01:36:32.073Z,12.95
2022-10-01T01:39:34.525Z,12.95
2022-10-01T01:42:40.160Z,12.96
2022-10-01T01:45:42.930Z,12.98
2022-10-01T01:48:49.443Z,12.86
2022-10-01T01:51:51.285Z,12.86
2022-10-01T01:54:54.379Z,12.85
2022-10-01T01:57:56.811Z,12.92
2022-10-01T02:00:59.055Z,12.83
2022-10-01T02:04:04.402Z,12.86
2022-10-01T02:07:23.991Z,12.78
2022-10-01T02:10:32.183Z,12.82
2022-10-01T02:13:42.381Z,12.95
2022-10-01T02:16:45.533Z,13.01
2022-10-01T02:19:56.314Z,12.93
2022-10-01T02:23:06.145Z,12.82
2022-10-01T02:26:15.110Z,12.70
2022-10-01T02:29:19.686Z,12.74
2022-10-01T02:32:21.920Z,12.70
2022-10-01T02:35:24.357Z,12.77
2022-10-01T02:38:26.388Z,12.67
2022-10-01T02:41:34.969Z,12.66
2022-10-01T02:44:40.269Z,12.63
2022-10-01T02:47:46.745Z,12.64
2022-10-01T02:50:51.973Z,12.70
2022-10-01T02:54:23.400Z,12.70
2022-10-01T02:57:29.499Z,12.80
2022-10-01T03:00:31.689Z,12.71
2022-10-01T03:03:33.619Z,12.69
2022-10-01T03:06:35.839Z,12.64
2022-10-01T03:09:37.750Z,12.67
2022-10-01T03:12:44.116Z,12.79
2022-10-01T03:15:46.312Z,12.88
2022-10-01T03:18:48.567Z,12.71
2022-10-01T03:21:50.474Z,12.68
2022-10-01T03:24:53.279Z,12.79
2022-10-01T03:27:55.230Z,12.73
2022-10-01T03:31:04.730Z,12.70
2022-10-01T03:34:06.697Z,12.72
2022-10-01T03:37:08.964Z,12.74
2022-10-01T03:40:10.883Z,12.74
2022-10-01T03:43:13.042Z,12.72
2022-10-01T03:46:15.024Z,12.74
2022-10-01T03:49:17.319Z,12.74
2022-10-01T03:52:19.787Z,12.80
2022-10-01T03:55:21.946Z,12.87
2022-10-01T03:58:23.939Z,12.79
2022-10-01T04:01:26.404Z,13.04
2022-10-01T04:04:29.001Z,12.96
2022-10-01T04:07:31.095Z,12.90
2022-10-01T04:10:33.462Z,12.79
2022-10-01T04:13:35.649Z,12.74
2022-10-01T04:16:37.875Z,12.74
2022-10-01T04:19:39.825Z,12.72
2022-10-01T04:22:42.812Z,12.72
2022-10-01T04:25:44.789Z,12.74
2022-10-01T04:28:47.515Z,12.75
2022-10-01T04:31:49.435Z,12.91
2022-10-01T04:34:54.751Z,12.88
2022-10-01T04:38:01.923Z,12.88
2022-10-01T04:41:04.169Z,12.86
2022-10-01T04:44:06.097Z,12.91
2022-10-01T04:47:08.625Z,12.84
2022-10-01T04:50:10.604Z,12.95
2022-10-01T04:53:12.849Z,12.96
2022-10-01T04:56:14.723Z,12.95
2022-10-01T04:59:16.979Z,13.00
2022-10-01T05:02:18.990Z,12.97
2022-10-01T05:05:23.372Z,12.89
2022-10-01T05:08:25.300Z,12.93
2022-10-01T05:11:27.549Z,12.92
2022-10-01T05:14:29.464Z,12.93
2022-10-01T05:17:33.107Z,12.92
2022-10-01T05:20:35.051Z,12.93
2022-10-01T05:23:37.506Z,12.97
2022-10-01T05:26:39.416Z,13.02
2022-10-01T05:29:41.969Z,12.92
2022-10-01T05:32:53.081Z,13.01
2022-10-01T05:35:56.195Z,12.93
2022-10-01T05:38:58.104Z,13.00
2022-10-01T05:42:06.134Z,13.00
2022-10-01T05:45:10.082Z,13.02
2022-10-01T05:48:12.831Z,12.97
2022-10-01T05:51:16.131Z,13.00
2022-10-01T05:54:19.513Z,13.03
2022-10-01T05:57:21.564Z,13.07
2022-10-01T06:00:24.161Z,13.13
2022-10-01T06:03:28.804Z,13.19
2022-10-01T06:06:30.704Z,13.20
2022-10-01T06:09:32.903Z,13.15
2022-10-01T06:12:34.792Z,13.29
2022-10-01T06:15:38.334Z,13.49
2022-10-01T06:18:40.670Z,13.35
2022-10-01T06:21:42.862Z,13.45
2022-10-01T06:24:44.803Z,13.68
2022-10-01T06:27:55.485Z,13.65
2022-10-01T06:31:00.624Z,13.67
2022-10-01T06:34:02.808Z,13.65
2022-10-01T06:37:04.735Z,13.63
2022-10-01T06:40:07.372Z,13.57
2022-10-01T06:43:09.557Z,13.54
2022-10-01T06:46:11.801Z,13.61
2022-10-01T06:49:13.881Z,13.60
2022-10-01T06:52:34.506Z,13.73
2022-10-01T06:55:37.103Z,13.77
2022-10-01T06:58:39.294Z,13.77
2022-10-01T07:01:41.269Z,13.84
2022-10-01T07:04:43.528Z,13.90
2022-10-01T07:07:45.439Z,13.96
2022-10-01T07:10:47.632Z,14.07
2022-10-01T07:13:54.399Z,14.01
2022-10-01T07:16:56.946Z,14.02
2022-10-01T07:19:58.860Z,14.02
2022-10-01T07:23:01.629Z,13.97
2022-10-01T07:26:04.348Z,13.97
2022-10-01T07:29:06.959Z,13.98
2022-10-01T07:32:10.389Z,13.82
2022-10-01T07:35:12.734Z,13.74
2022-10-01T07:38:14.758Z,13.88
2022-10-01T07:41:17.838Z,14.00
2022-10-01T07:44:20.111Z,14.14
2022-10-01T07:47:22.340Z,14.18
2022-10-01T07:50:25.290Z,14.28
2022-10-01T07:53:28.131Z,14.35
2022-10-01T07:56:30.072Z,14.35
2022-10-01T07:59:33.166Z,14.32
2022-10-01T08:02:36.103Z,14.38
2022-10-01T08:05:40.390Z,14.41
2022-10-01T08:08:42.324Z,14.55
2022-10-01T08:11:45.525Z,14.71
2022-10-01T08:14:47.882Z,14.89
2022-10-01T08:17:50.097Z,14.83
2022-10-01T08:20:52.486Z,14.83
2022-10-01T08:23:54.705Z,15.04
2022-10-01T08:26:57.445Z,15.03
2022-10-01T08:29:59.620Z,15.05
2022-10-01T08:33:02.137Z,15.08
2022-10-01T08:36:07.955Z,14.94
2022-10-01T08:39:11.471Z,14.87
2022-10-01T08:42:15.338Z,15.06
2022-10-01T08:45:23.178Z,15.20
2022-10-01T08:48:57.123Z,15.13
2022-10-01T08:52:06.345Z,15.12
2022-10-01T08:55:16.750Z,14.97
2022-10-01T08:58:23.705Z,15.07
2022-10-01T09:01:26.467Z,15.25
2022-10-01T09:04:29.137Z,15.26
2022-10-01T09:07:40.542Z,15.19
2022-10-01T09:10:47.094Z,15.45
2022-10-01T09:14:07.204Z,15.72
2022-10-01T09:17:16.028Z,15.79
2022-10-01T09:20:25.886Z,15.69
2022-10-01T09:23:32.086Z,15.84
2022-10-01T09:26:36.509Z,15.84
2022-10-01T09:29:57.266Z,16.04
2022-10-01T09:33:04.782Z,15.85
2022-10-01T09:36:18.590Z,16.27
2022-10-01T09:39:27.057Z,16.47
2022-10-01T09:42:29.623Z,16.72
2022-10-01T09:45:31.882Z,17.18
2022-10-01T09:48:39.743Z,17.77
2022-10-01T09:51:45.578Z,17.95
2022-10-01T09:54:52.478Z,18.18
2022-10-01T09:58:21.021Z,18.47
2022-10-01T10:01:26.737Z,18.98
2022-10-01T10:04:28.866Z,19.08
2022-10-01T10:07:32.565Z,19.50
2022-10-01T10:10:36.910Z,19.55
2022-10-01T10:13:49.098Z,19.54
2022-10-01T10:16:51.284Z,19.41
2022-10-01T10:19:53.265Z,18.92
2022-10-01T10:23:05.573Z,19.07
2022-10-01T10:26:07.526Z,19.05
2022-10-01T10:29:25.994Z,19.64
2022-10-01T10:32:28.563Z,20.10
2022-10-01T10:35:33.999Z,19.94
2022-10-01T10:38:35.949Z,18.96
2022-10-01T10:41:43.678Z,18.48
2022-10-01T10:44:46.867Z,18.83
2022-10-01T10:47:51.431Z,19.23
2022-10-01T10:50:58.276Z,18.69
2022-10-01T10:54:00.738Z,19.25
2022-10-01T10:57:05.266Z,19.74
2022-10-01T11:00:14.134Z,19.06
2022-10-01T11:03:17.746Z,19.60
2022-10-01T11:06:20.356Z,19.42
2022-10-01T11:09:23.546Z,19.17
2022-10-01T11:12:29.219Z,19.14
2022-10-01T11:15:31.132Z,18.83
2022-10-01T11:18:51.625Z,19.35
2022-10-01T11:22:00.698Z,20.48
2022-10-01T11:25:02.918Z,20.23
2022-10-01T11:28:04.931Z,20.47
2022-10-01T11:31:13.619Z,20.14
2022-10-01T11:34:48.582Z,21.19
2022-10-01T11:37:50.742Z,21.07
2022-10-01T11:41:04.689Z,20.56
2022-10-01T11:44:22.369Z,21.09
2022-10-01T11:47:40.798Z,23.05
2022-10-01T11:50:46.170Z,22.83
2022-10-01T11:53:52.013Z,23.91
2022-10-01T11:57:13.795Z,25.41
2022-10-01T12:00:16.935Z,25.88
2022-10-01T12:03:23.596Z,26.17
2022-10-01T12:06:41.163Z,25.17
2022-10-01T12:09:55.745Z,23.58
2022-10-01T12:13:02.829Z,22.02
2022-10-01T12:16:23.927Z,21.63
2022-10-01T12:19:28.751Z,21.55
2022-10-01T12:22:32.631Z,21.70
2022-10-01T12:25:57.063Z,21.66
2022-10-01T12:29:09.962Z,21.36
2022-10-01T12:32:14.622Z,21.35
2022-10-01T12:35:35.365Z,20.97
2022-10-01T12:38:40.410Z,20.61
2022-10-01T12:42:03.129Z,20.27
2022-10-01T12:45:12.673Z,19.97
2022-10-01T12:48:18.002Z,20.00
2022-10-01T12:51:39.113Z,19.94
2022-10-01T12:54:50.319Z,19.91
2022-10-01T12:57:59.442Z,20.01
2022-10-01T13:01:15.228Z,20.11
2022-10-01T13:04:23.914Z,20.12
2022-10-01T13:07:46.884Z,20.29
2022-10-01T13:10:51.807Z,21.99
2022-10-01T13:13:55.557Z,23.48
2022-10-01T13:17:00.593Z,24.00
2022-10-01T13:20:05.948Z,23.86
2022-10-01T13:23:23.413Z,23.53
2022-10-01T13:26:28.575Z,22.91
2022-10-01T13:29:49.216Z,23.21
2022-10-01T13:33:15.846Z,22.73
2022-10-01T13:36:28.039Z,22.73
2022-10-01T13:39:36.589Z,23.87
2022-10-01T13:42:43.570Z,24.02
2022-10-01T13:45:46.929Z,23.19
2022-10-01T13:48:49.615Z,22.15
2022-10-01T13:51:52.609Z,21.44
2022-10-01T13:54:55.666Z,20.97
2022-10-01T13:58:19.501Z,20.30
2022-10-01T14:01:24.300Z,19.05
2022-10-01T14:04:34.575Z,18.12
2022-10-01T14:07:38.313Z,17.70
2022-10-01T14:11:18.852Z,17.80
2022-10-01T14:14:42.381Z,18.15
2022-10-01T14:17:45.969Z,18.68
2022-10-01T14:20:56.178Z,19.07
2022-10-01T14:24:03.009Z,19.09
2022-10-01T14:27:12.654Z,19.06
2022-10-01T14:30:16.865Z,18.85
2022-10-01T14:33:24.505Z,18.47
2022-10-01T14:36:45.198Z,18.08
2022-10-01T14:39:47.180Z,17.78
2022-10-01T14:43:03.757Z,17.78
2022-10-01T14:46:06.832Z,17.66
2022-10-01T14:49:24.297Z,17.58
2022-10-01T14:52:31.451Z,17.65
2022-10-01T14:55:34.694Z,17.78
2022-10-01T14:58:39.242Z,17.64
2022-10-01T15:01:41.439Z,17.49
2022-10-01T15:04:47.553Z,17.30
2022-10-01T15:07:49.795Z,17.19
2022-10-01T15:10:54.493Z,17.25
2022-10-01T15:14:01.205Z,17.29
2022-10-01T15:17:06.423Z,17.23
2022-10-01T15:20:11.373Z,17.11
2022-10-01T15:23:13.605Z,16.79
2022-10-01T15:26:19.198Z,16.80
2022-10-01T15:29:21.155Z,16.74
2022-10-01T15:32:24.172Z,16.68
2022-10-01T15:35:26.242Z,16.70
2022-10-01T15:38:32.347Z,16.51
2022-10-01T15:41:34.380Z,16.39
2022-10-01T15:44:38.535Z,16.35
2022-10-01T15:47:49.274Z,16.22
2022-10-01T15:50:56.616Z,16.16
2022-10-01T15:54:06.849Z,16.10
2022-10-01T15:57:10.261Z,16.00
2022-10-01T16:00:41.508Z,15.85
2022-10-01T16:04:00.683Z,15.88
2022-10-01T16:07:02.590Z,15.71
2022-10-01T16:10:25.392Z,15.65
2022-10-01T16:13:40.449Z,15.59
2022-10-01T16:16:42.709Z,15.65
2022-10-01T16:19:45.558Z,15.59
2022-10-01T16:22:47.854Z,15.51
2022-10-01T16:25:49.751Z,15.37
2022-10-01T16:29:00.194Z,15.15
2022-10-01T16:32:02.614Z,15.07
2022-10-01T16:35:14.114Z,15.07
2022-10-01T16:38:16.293Z,15.14
2022-10-01T16:41:23.292Z,14.96
2022-10-01T16:44:25.338Z,14.92
2022-10-01T16:47:27.644Z,14.81
2022-10-01T16:50:30.071Z,14.86
2022-10-01T16:53:32.376Z,14.79
2022-10-01T16:56:34.316Z,14.67
2022-10-01T16:59:36.618Z,14.60
2022-10-01T17:02:38.492Z,14.53
2022-10-01T17:05:41.166Z,14.54
2022-10-01T17:08:43.081Z,14.55
2022-10-01T17:11:46.332Z,14.53
2022-10-01T17:14:48.188Z,14.71
2022-10-01T17:17:50.354Z,14.58
2022-10-01T17:20:52.278Z,14.49
2022-10-01T17:23:54.601Z,14.33
2022-10-01T17:26:56.507Z,14.24
2022-10-01T17:29:58.685Z,14.24
2022-10-01T17:33:01.130Z,14.31
2022-10-01T17:36:06.084Z,14.27
2022-10-01T17:39:07.976Z,14.34
2022-10-01T17:42:10.190Z,14.23
2022-10-01T17:45:13.366Z,14.19
2022-10-01T17:48:18.861Z,14.03
2022-10-01T17:51:23.772Z,13.85
2022-10-01T17:54:26.122Z,14.10
2022-10-01T17:57:28.033Z,14.06
2022-10-01T18:00:30.239Z,13.93
2022-10-01T18:03:32.415Z,14.06
2022-10-01T18:06:34.514Z,14.10
2022-10-01T18:09:36.876Z,13.97
2022-10-01T18:12:39.127Z,13.91
2022-10-01T18:15:41.316Z,13.84
2022-10-01T18:22:14.214Z,13.90
2022-10-01T18:25:16.717Z,13.84
2022-10-01T18:28:19.028Z,13.68
2022-10-01T18:31:28.653Z,13.57
2022-10-01T18:34:39.643Z,13.59
2022-10-01T18:37:43.767Z,13.65
2022-10-01T18:40:49.914Z,13.73
2022-10-01T18:43:51.840Z,13.65
2022-10-01T18:47:09.186Z,13.62
2022-10-01T18:50:11.174Z,13.73
2022-10-01T18:53:16.131Z,13.83
2022-10-01T18:56:18.016Z,13.74
2022-10-01T18:59:23.273Z,13.82
2022-10-01T19:02:33.884Z,13.78
2022-10-01T19:05:36.083Z,13.75
2022-10-01T19:08:37.925Z,13.78
2022-10-01T19:11:51.709Z,13.79
2022-10-01T19:14:56.505Z,13.84
2022-10-01T19:18:09.351Z,14.00
2022-10-01T19:21:17.488Z,13.99
2022-10-01T19:24:35.136Z,14.00
2022-10-01T19:27:42.923Z,14.06
2022-10-01T19:31:03.830Z,14.06
2022-10-01T19:34:22.480Z,14.04
2022-10-01T19:37:31.062Z,14.05
2022-10-01T19:40:53.232Z,13.96
2022-10-01T19:43:58.924Z,13.93
2022-10-01T19:47:16.350Z,13.79
2022-10-01T19:50:21.100Z,13.73
2022-10-01T19:53:26.077Z,13.76
2022-10-01T19:56:30.217Z,13.89
2022-10-01T19:59:32.135Z,13.92
2022-10-01T20:02:40.164Z,13.92
2022-10-01T20:05:56.780Z,14.00
2022-10-01T20:09:18.878Z,14.02
2022-10-01T20:12:28.354Z,13.95
2022-10-01T20:15:48.998Z,14.10
2022-10-01T20:18:54.494Z,14.08
2022-10-01T20:22:22.418Z,14.12
2022-10-01T20:25:33.936Z,14.18
2022-10-01T20:28:52.195Z,14.09
2022-10-01T20:32:13.297Z,14.31
2022-10-01T20:35:32.437Z,14.40
2022-10-01T20:38:48.872Z,14.43
2022-10-01T20:41:53.959Z,14.37
2022-10-01T20:44:56.281Z,14.42
2022-10-01T20:48:01.436Z,14.35
2022-10-01T20:51:06.784Z,14.34
2022-10-01T20:54:24.344Z,14.26
2022-10-01T20:57:34.438Z,14.23
2022-10-01T21:00:37.475Z,14.18
2022-10-01T21:03:44.176Z,14.07
2022-10-01T21:06:50.453Z,14.00
2022-10-01T21:09:54.246Z,14.08
2022-10-01T21:12:59.679Z,13.99
2022-10-01T21:16:05.091Z,13.88
2022-10-01T21:19:15.975Z,13.83
2022-10-01T21:22:18.106Z,13.78
2022-10-01T21:25:35.358Z,13.74
2022-10-01T21:28:37.486Z,13.75
2022-10-01T21:31:43.799Z,13.66
2022-10-01T21:35:01.889Z,13.55
2022-10-01T21:38:19.254Z,13.49
2022-10-01T21:41:30.455Z,13.29
2022-10-01T21:44:41.566Z,13.17
2022-10-01T21:47:46.463Z,13.13
2022-10-01T21:50:48.310Z,13.12
2022-10-01T21:53:56.604Z,12.91
2022-10-01T21:57:10.407Z,12.83
2022-10-01T22:00:21.662Z,12.64
2022-10-01T22:03:42.126Z,12.40
2022-10-01T22:06:58.426Z,12.22
2022-10-01T22:10:08.324Z,12.13
2022-10-01T22:13:19.005Z,12.09
2022-10-01T22:16:22.873Z,12.00
2022-10-01T22:19:29.685Z,12.07
2022-10-01T22:22:35.605Z,12.29
2022-10-01T22:25:42.825Z,12.35
2022-10-01T22:28:47.734Z,12.24
2022-10-01T22:31:51.585Z,12.05
2022-10-01T22:34:58.824Z,11.91
2022-10-01T22:38:20.973Z,11.76
2022-10-01T22:41:42.873Z,11.65
2022-10-01T22:44:44.862Z,11.61
2022-10-01T22:48:05.924Z,11.49
2022-10-01T22:51:07.954Z,11.43
2022-10-01T22:54:13.648Z,11.69
2022-10-01T22:57:21.610Z,11.84
2022-10-01T23:00:23.920Z,11.78
2022-10-01T23:03:44.778Z,11.93
2022-10-01T23:06:52.993Z,12.00
2022-10-01T23:10:15.326Z,12.02
2022-10-01T23:13:29.496Z,12.05
2022-10-01T23:16:42.300Z,11.92
2022-10-01T23:19:44.482Z,12.01
2022-10-01T23:22:52.348Z,11.95
2022-10-01T23:25:57.590Z,11.95
2022-10-01T23:29:10.137Z,11.85
2022-10-01T23:32:15.396Z,11.98
2022-10-01T23:35:19.291Z,11.90
2022-10-01T23:38:32.284Z,11.84
2022-10-01T23:41:38.392Z,11.85
2022-10-01T23:45:01.947Z,11.98
2022-10-01T23:48:13.189Z,12.29
2022-10-01T23:51:24.573Z,12.30
2022-10-01T23:54:30.101Z,12.28
2022-10-01T23:57:36.135Z,12.22
